createdAt,value
2024-03-05T00:03:46.298Z,7.37
2024-03-05T00:18:48.452Z,8.40
2024-03-05T00:33:50.453Z,7.07
2024-03-05T00:48:53.228Z,6.70
2024-03-05T01:03:56.844Z,7.50
2024-03-05T01:18:59.140Z,6.37
2024-03-05T01:34:04.571Z,8.30
2024-03-05T01:49:09.347Z,7.23
2024-03-05T02:04:12.313Z,7.17
2024-03-05T02:19:14.467Z,7.13
2024-03-05T02:34:20.956Z,7.43
2024-03-05T02:49:23.050Z,6.63
2024-03-05T03:04:26.820Z,6.93
2024-03-05T03:19:29.054Z,6.70
2024-03-05T03:34:31.943Z,6.60
2024-03-05T03:49:34.792Z,6.90
2024-03-05T04:04:43.953Z,6.73
2024-03-05T04:19:46.261Z,6.20
2024-03-05T04:35:01.244Z,5.83
2024-03-05T04:50:03.836Z,7.30
2024-03-05T05:05:05.946Z,5.90
2024-03-05T05:20:09.663Z,6.13
2024-03-05T05:35:11.815Z,7.67
2024-03-05T05:50:19.569Z,7.40
2024-03-05T06:05:29.547Z,5.77
2024-03-05T06:20:33.999Z,6.97
2024-03-05T06:35:37.150Z,5.57
2024-03-05T06:50:40.339Z,6.20
2024-03-05T07:05:43.474Z,6.30
2024-03-05T07:20:47.288Z,6.47
2024-03-05T07:35:49.624Z,5.87
2024-03-05T07:50:51.654Z,6.40
2024-03-05T08:05:53.584Z,6.63
2024-03-05T08:20:56.835Z,5.60
2024-03-05T08:35:59.030Z,6.37
2024-03-05T08:51:01.186Z,5.77
2024-03-05T09:06:03.668Z,5.53
2024-03-05T09:21:08.842Z,4.57
2024-03-05T09:36:10.992Z,5.70
2024-03-05T09:51:15.955Z,4.77
2024-03-05T10:21:24.008Z,4.90
2024-03-05T10:36:35.117Z,5.43
2024-03-05T10:51:40.012Z,5.37
2024-03-05T11:06:42.795Z,5.17
2024-03-05T11:21:45.055Z,4.67
2024-03-05T11:37:06.640Z,5.37
2024-03-05T11:52:09.564Z,4.93
2024-03-05T12:07:15.058Z,4.63
2024-03-05T12:22:17.972Z,4.93
2024-03-05T12:37:20.963Z,4.97
2024-03-05T12:52:26.292Z,4.83
2024-03-05T13:07:28.369Z,4.60
2024-03-05T13:22:30.822Z,5.60
2024-03-05T13:37:36.643Z,5.30
2024-03-05T13:52:43.495Z,5.00
2024-03-05T14:07:45.854Z,5.97
2024-03-05T14:22:48.204Z,5.93
2024-03-05T14:37:51.021Z,5.30
2024-03-05T14:52:55.733Z,5.53
2024-03-05T15:07:57.964Z,6.27
2024-03-05T15:23:01.003Z,7.00
2024-03-05T15:38:06.854Z,6.63
2024-03-05T15:53:09.593Z,7.10
2024-03-05T16:08:13.085Z,7.23
2024-03-05T16:23:15.376Z,8.27
2024-03-05T16:38:17.742Z,9.23
2024-03-05T16:53:19.969Z,7.53
2024-03-05T17:08:25.623Z,8.13
2024-03-05T17:23:42.618Z,9.77
2024-03-05T17:38:44.580Z,9.37
2024-03-05T17:53:47.160Z,8.47
2024-03-05T18:08:49.293Z,8.50
2024-03-05T18:23:57.973Z,9.03
2024-03-05T18:39:01.486Z,7.90
2024-03-05T18:54:06.254Z,6.60
2024-03-05T19:09:10.189Z,6.90
2024-03-05T19:24:12.829Z,6.97
2024-03-05T19:39:14.819Z,6.80
2024-03-05T19:54:16.817Z,7.50
2024-03-05T20:09:21.728Z,8.47
2024-03-05T20:24:23.865Z,8.83
2024-03-05T20:39:25.836Z,10.73
2024-03-05T20:54:27.829Z,10.30
2024-03-05T21:09:29.780Z,10.20
2024-03-05T21:24:31.963Z,10.53
2024-03-05T21:39:34.594Z,10.30
2024-03-05T21:54:36.548Z,9.60
2024-03-05T22:09:40.540Z,9.20
2024-03-05T22:24:42.682Z,10.73
2024-03-05T22:39:44.622Z,10.83
2024-03-05T22:54:46.992Z,11.00
2024-03-05T23:09:48.999Z,11.13
2024-03-05T23:24:51.158Z,12.93
2024-03-05T23:39:53.368Z,15.37
2024-03-05T23:54:58.088Z,14.77
